createdAt,value
2023-05-08T00:02:06.778Z,91.18
2023-05-08T00:05:09.887Z,91.37
2023-05-08T00:08:12.540Z,91.26
2023-05-08T00:11:15.434Z,91.31
2023-05-08T00:14:18.104Z,91.45
2023-05-08T00:17:21.074Z,91.13
2023-05-08T00:20:23.707Z,90.78
2023-05-08T00:23:26.542Z,90.74
2023-05-08T00:26:28.997Z,90.61
2023-05-08T00:29:32.198Z,90.85
2023-05-08T00:32:34.801Z,90.80
2023-05-08T00:35:37.686Z,90.72
2023-05-08T00:38:40.179Z,90.77
2023-05-08T00:41:43.338Z,91.27
2023-05-08T00:44:46.063Z,92.04
2023-05-08T00:47:50.199Z,92.77
2023-05-08T00:50:54.861Z,92.88
2023-05-08T00:53:58.457Z,93.07
2023-05-08T00:57:01.622Z,93.62
2023-05-08T01:00:05.779Z,93.13
2023-05-08T01:03:09.489Z,92.98
2023-05-08T01:06:12.571Z,92.47
2023-05-08T01:09:15.125Z,93.59
2023-05-08T01:12:31.101Z,94.30
2023-05-08T01:15:39.430Z,95.11
2023-05-08T01:18:46.341Z,95.35
2023-05-08T01:22:08.163Z,95.84
2023-05-08T01:25:24.455Z,95.51
2023-05-08T01:28:51.749Z,95.65
2023-05-08T01:32:18.647Z,95.72
2023-05-08T01:35:29.274Z,95.36
2023-05-08T01:39:07.700Z,94.94
2023-05-08T01:42:18.529Z,94.09
2023-05-08T01:45:26.682Z,93.32
2023-05-08T01:48:45.755Z,92.73
2023-05-08T01:52:03.932Z,92.35
2023-05-08T01:55:11.007Z,92.12
2023-05-08T01:58:13.848Z,92.02
2023-05-08T02:01:19.079Z,92.12
2023-05-08T02:04:22.559Z,92.13
2023-05-08T02:07:25.452Z,91.58
2023-05-08T02:10:30.788Z,91.50
2023-05-08T02:13:34.172Z,91.18
2023-05-08T02:16:38.119Z,91.07
2023-05-08T02:19:42.723Z,91.02
2023-05-08T02:22:46.420Z,90.60
2023-05-08T02:25:49.856Z,90.60
2023-05-08T02:28:53.433Z,89.92
2023-05-08T02:31:56.889Z,89.76
2023-05-08T02:35:03.558Z,89.54
2023-05-08T02:38:10.786Z,89.55
2023-05-08T02:41:14.361Z,89.19
2023-05-08T02:44:17.752Z,88.50
2023-05-08T02:47:27.440Z,88.24
2023-05-08T02:50:37.859Z,87.97
2023-05-08T02:53:46.616Z,87.30
2023-05-08T02:57:20.216Z,86.66
2023-05-08T03:00:28.051Z,86.96
2023-05-08T03:03:44.877Z,87.04
2023-05-08T03:06:48.381Z,86.69
2023-05-08T03:09:57.354Z,86.43
2023-05-08T03:13:03.448Z,86.33
2023-05-08T03:16:06.967Z,85.86
2023-05-08T03:19:25.113Z,85.52
2023-05-08T03:22:28.999Z,85.23
2023-05-08T03:25:32.574Z,86.02
2023-05-08T03:28:36.070Z,85.95
2023-05-08T03:31:39.622Z,85.88
2023-05-08T03:34:44.081Z,85.62
2023-05-08T03:37:47.580Z,85.36
2023-05-08T03:40:50.524Z,85.59
2023-05-08T03:43:55.113Z,85.28
2023-05-08T03:46:58.635Z,85.39
2023-05-08T03:50:01.992Z,85.55
2023-05-08T03:53:05.347Z,85.30
2023-05-08T03:56:09.004Z,85.50
2023-05-08T03:59:17.823Z,85.04
2023-05-08T04:02:52.428Z,84.75
2023-05-08T04:06:08.579Z,85.14
2023-05-08T04:09:18.960Z,84.42
2023-05-08T04:13:04.791Z,83.81
2023-05-08T04:16:13.825Z,84.10
2023-05-08T04:19:25.094Z,83.86
2023-05-08T04:22:29.966Z,83.57
2023-05-08T04:25:36.982Z,83.08
2023-05-08T04:28:40.865Z,83.45
2023-05-08T04:31:44.482Z,83.40
2023-05-08T04:34:47.679Z,82.68
2023-05-08T04:37:50.976Z,82.88
2023-05-08T04:40:54.300Z,82.73
2023-05-08T04:43:57.241Z,82.66
2023-05-08T04:46:59.930Z,83.05
2023-05-08T04:50:03.314Z,82.38
2023-05-08T04:53:07.879Z,82.24
2023-05-08T04:56:10.933Z,82.10
2023-05-08T04:59:15.883Z,82.39
2023-05-08T05:02:19.876Z,82.46
2023-05-08T05:05:22.854Z,83.52
2023-05-08T05:08:26.083Z,79.66
2023-05-08T05:11:29.277Z,77.04
2023-05-08T05:14:33.124Z,74.77
2023-05-08T05:17:35.956Z,73.59
2023-05-08T05:20:39.049Z,74.23
2023-05-08T05:23:41.585Z,73.31
2023-05-08T05:26:44.460Z,73.04
2023-05-08T05:29:47.381Z,72.48
2023-05-08T05:32:51.444Z,71.80
2023-05-08T05:35:54.923Z,71.92
2023-05-08T05:38:58.066Z,71.68
2023-05-08T05:42:01.591Z,71.24
2023-05-08T05:45:05.581Z,71.88
2023-05-08T05:48:08.729Z,72.25
2023-05-08T05:51:12.271Z,72.24
2023-05-08T05:54:15.418Z,71.89
2023-05-08T05:57:18.477Z,71.42
2023-05-08T06:00:22.230Z,71.55
2023-05-08T06:03:25.329Z,71.46
2023-05-08T06:06:29.133Z,71.69
2023-05-08T06:09:32.369Z,71.02
2023-05-08T06:12:35.022Z,72.77
2023-05-08T06:15:38.605Z,74.76
2023-05-08T06:18:41.584Z,75.28
2023-05-08T06:21:45.613Z,75.96
2023-05-08T06:24:48.277Z,76.29
2023-05-08T06:27:51.144Z,75.97
2023-05-08T06:30:54.341Z,74.67
2023-05-08T06:33:57.460Z,75.82
2023-05-08T06:37:00.037Z,75.19
2023-05-08T06:40:12.324Z,76.11
2023-05-08T06:43:15.548Z,73.64
2023-05-08T06:46:18.574Z,73.87
2023-05-08T06:49:21.224Z,74.47
2023-05-08T06:52:25.684Z,72.69
2023-05-08T06:55:28.623Z,72.07
2023-05-08T06:58:32.219Z,72.18
2023-05-08T07:01:34.918Z,71.01
2023-05-08T07:04:38.103Z,72.33
2023-05-08T07:07:42.647Z,69.49
2023-05-08T07:10:45.743Z,69.67
2023-05-08T07:13:48.511Z,68.15
2023-05-08T07:16:51.597Z,67.82
2023-05-08T07:19:54.360Z,66.43
2023-05-08T07:22:57.360Z,68.36
2023-05-08T07:26:00.006Z,65.81
2023-05-08T07:29:03.027Z,65.50
2023-05-08T07:32:07.908Z,64.94
2023-05-08T07:35:12.833Z,62.69
2023-05-08T07:38:15.806Z,61.09
2023-05-08T07:41:18.633Z,61.65
2023-05-08T07:44:21.186Z,60.21
2023-05-08T07:47:24.304Z,59.19
2023-05-08T07:50:27.070Z,59.67
2023-05-08T07:53:30.227Z,59.29
2023-05-08T07:56:32.821Z,57.64
2023-05-08T07:59:35.930Z,57.88
2023-05-08T08:02:39.062Z,56.73
2023-05-08T08:05:42.942Z,55.00
2023-05-08T08:08:45.631Z,55.34
2023-05-08T08:11:48.594Z,54.57
2023-05-08T08:14:51.166Z,54.60
2023-05-08T08:17:54.515Z,55.77
2023-05-08T08:20:57.131Z,53.87
2023-05-08T08:24:00.098Z,52.66
2023-05-08T08:27:03.715Z,50.62
2023-05-08T08:30:17.019Z,49.32
2023-05-08T08:33:21.283Z,50.20
2023-05-08T08:36:24.504Z,49.06
2023-05-08T08:39:27.248Z,46.98
2023-05-08T08:42:31.654Z,49.98
2023-05-08T08:45:34.342Z,47.75
2023-05-08T08:48:37.982Z,46.67
2023-05-08T08:51:52.445Z,47.37
2023-05-08T08:54:56.568Z,47.47
2023-05-08T08:58:27.434Z,45.47
2023-05-08T09:01:34.068Z,45.62
2023-05-08T09:04:36.872Z,45.09
2023-05-08T09:07:41.900Z,43.82
2023-05-08T09:10:44.554Z,43.36
2023-05-08T09:13:47.487Z,43.77
2023-05-08T09:16:50.202Z,43.73
2023-05-08T09:19:53.559Z,42.69
2023-05-08T09:22:56.640Z,43.23
2023-05-08T09:25:59.835Z,42.28
2023-05-08T09:29:20.102Z,41.92
2023-05-08T09:32:23.414Z,41.00
2023-05-08T09:35:36.617Z,41.05
2023-05-08T09:38:41.994Z,41.09
2023-05-08T09:41:58.423Z,41.04
2023-05-08T09:45:01.399Z,39.41
2023-05-08T09:48:04.405Z,38.17
2023-05-08T09:51:07.726Z,40.40
2023-05-08T09:54:18.120Z,38.66
2023-05-08T09:57:21.502Z,37.60
2023-05-08T10:00:28.503Z,39.14
2023-05-08T10:03:50.349Z,37.86
2023-05-08T10:06:58.538Z,37.82
2023-05-08T10:10:05.896Z,38.11
2023-05-08T10:13:08.556Z,37.59
2023-05-08T10:16:15.810Z,36.82
2023-05-08T10:19:23.553Z,37.01
2023-05-08T10:22:28.170Z,38.82
2023-05-08T10:25:35.682Z,38.04
2023-05-08T10:28:57.468Z,35.42
2023-05-08T10:32:03.030Z,36.76
2023-05-08T10:35:09.735Z,35.79
2023-05-08T10:38:12.473Z,37.07
2023-05-08T10:41:15.932Z,35.49
2023-05-08T10:44:19.300Z,35.64
2023-05-08T10:47:31.112Z,37.14
2023-05-08T10:50:49.142Z,35.69
2023-05-08T10:54:05.040Z,35.50
2023-05-08T10:57:11.374Z,35.70
2023-05-08T11:00:14.967Z,34.23
2023-05-08T11:03:30.609Z,33.93
2023-05-08T11:06:46.166Z,34.14
2023-05-08T11:09:49.162Z,34.18
2023-05-08T11:12:53.498Z,34.61
2023-05-08T11:15:56.672Z,34.07
2023-05-08T11:19:19.687Z,34.97
2023-05-08T11:22:27.138Z,33.23
2023-05-08T11:25:43.859Z,35.08
2023-05-08T11:28:57.154Z,34.11
2023-05-08T11:32:00.342Z,34.33
2023-05-08T11:35:03.119Z,31.98
2023-05-08T11:38:35.992Z,32.28
2023-05-08T11:41:41.853Z,32.27
2023-05-08T11:44:45.258Z,32.17
2023-05-08T11:47:47.912Z,31.41
2023-05-08T11:50:51.463Z,32.44
2023-05-08T11:53:54.186Z,32.26
2023-05-08T11:56:57.607Z,32.61
2023-05-08T12:00:07.031Z,31.04
2023-05-08T12:03:13.684Z,32.32
2023-05-08T12:06:18.905Z,30.97
2023-05-08T12:09:22.371Z,30.65
2023-05-08T12:12:36.906Z,30.43
2023-05-08T12:15:39.563Z,31.83
2023-05-08T12:18:44.349Z,30.52
2023-05-08T12:21:48.830Z,30.48
2023-05-08T12:24:51.867Z,32.25
2023-05-08T12:27:54.692Z,32.88
2023-05-08T12:30:58.213Z,31.75
2023-05-08T12:34:02.877Z,30.04
2023-05-08T12:37:05.723Z,30.55
2023-05-08T12:40:17.421Z,29.20
2023-05-08T12:43:20.272Z,30.14
2023-05-08T12:46:22.940Z,29.62
2023-05-08T12:49:30.927Z,31.17
2023-05-08T12:52:33.462Z,27.51
2023-05-08T12:55:38.148Z,30.84
2023-05-08T12:58:41.008Z,31.25
2023-05-08T13:01:50.598Z,31.05
2023-05-08T13:04:56.645Z,31.43
2023-05-08T13:08:01.336Z,31.26
2023-05-08T13:11:05.519Z,30.05
2023-05-08T13:14:08.808Z,31.31
2023-05-08T13:17:11.401Z,30.97
2023-05-08T13:20:14.702Z,32.27
2023-05-08T13:23:17.595Z,31.83
2023-05-08T13:26:21.679Z,32.33
2023-05-08T13:29:24.312Z,32.99
2023-05-08T13:32:27.384Z,32.63
2023-05-08T13:35:29.972Z,29.58
2023-05-08T13:38:34.578Z,30.03
2023-05-08T13:41:37.096Z,29.57
2023-05-08T13:44:40.693Z,30.54
2023-05-08T13:47:43.490Z,29.36
2023-05-08T13:50:46.620Z,29.70
2023-05-08T13:53:49.283Z,31.72
2023-05-08T13:56:53.945Z,34.24
2023-05-08T13:59:56.589Z,33.40
2023-05-08T14:02:59.851Z,33.29
2023-05-08T14:06:02.802Z,34.71
2023-05-08T14:09:05.522Z,34.30
2023-05-08T14:12:08.477Z,34.37
2023-05-08T14:15:12.044Z,32.54
2023-05-08T14:18:15.320Z,34.20
2023-05-08T14:21:18.433Z,34.12
2023-05-08T14:24:21.659Z,33.69
2023-05-08T14:27:24.296Z,35.19
2023-05-08T14:30:27.356Z,36.03
2023-05-08T14:33:30.541Z,36.00
2023-05-08T14:36:33.446Z,36.04
2023-05-08T14:39:36.348Z,36.00
2023-05-08T14:42:39.375Z,38.03
2023-05-08T14:45:49.858Z,37.48
2023-05-08T14:48:54.222Z,37.71
2023-05-08T14:51:57.722Z,37.14
2023-05-08T14:55:01.240Z,37.59
2023-05-08T14:58:04.116Z,37.15
2023-05-08T15:01:07.086Z,38.30
2023-05-08T15:04:11.178Z,37.44
2023-05-08T15:07:14.137Z,37.34
2023-05-08T15:10:16.717Z,38.11
2023-05-08T15:13:19.711Z,38.81
2023-05-08T15:16:22.398Z,38.71
2023-05-08T15:19:25.556Z,38.52
2023-05-08T15:22:28.412Z,38.76
2023-05-08T15:25:31.306Z,39.52
2023-05-08T15:28:34.060Z,39.23
2023-05-08T15:31:37.006Z,39.34
2023-05-08T15:34:40.712Z,39.58
2023-05-08T15:37:43.861Z,40.17
2023-05-08T15:40:46.483Z,41.55
2023-05-08T15:43:49.404Z,40.78
2023-05-08T15:46:51.963Z,41.08
2023-05-08T15:49:55.094Z,42.29
2023-05-08T15:52:57.872Z,43.00
2023-05-08T15:56:00.951Z,42.75
2023-05-08T15:59:03.532Z,43.09
2023-05-08T16:02:06.706Z,43.59
2023-05-08T16:05:10.078Z,44.25
2023-05-08T16:08:13.813Z,43.62
2023-05-08T16:11:16.901Z,43.53
2023-05-08T16:14:20.177Z,43.32
2023-05-08T16:17:23.155Z,42.96
2023-05-08T16:20:26.179Z,44.10
2023-05-08T16:23:29.235Z,43.91
2023-05-08T16:26:31.835Z,45.93
2023-05-08T16:29:34.737Z,45.41
2023-05-08T16:32:37.314Z,45.12
2023-05-08T16:35:40.504Z,44.43
2023-05-08T16:38:43.730Z,45.33
2023-05-08T16:41:46.676Z,46.41
2023-05-08T16:44:49.261Z,46.39
2023-05-08T16:47:52.285Z,47.21
2023-05-08T16:50:55.864Z,47.79
2023-05-08T16:53:58.938Z,46.95
2023-05-08T16:57:01.595Z,46.41
2023-05-08T17:00:05.727Z,47.68
2023-05-08T17:03:08.581Z,47.98
2023-05-08T17:06:11.692Z,47.50
2023-05-08T17:09:14.275Z,48.23
2023-05-08T17:12:17.246Z,48.88
2023-05-08T17:15:19.876Z,49.20
2023-05-08T17:18:22.888Z,48.94
2023-05-08T17:21:25.763Z,49.20
2023-05-08T17:24:32.336Z,49.87
2023-05-08T17:27:36.026Z,50.28
2023-05-08T17:30:38.928Z,50.29
2023-05-08T17:33:41.978Z,51.52
2023-05-08T17:36:44.872Z,51.60
2023-05-08T17:39:47.474Z,52.31
2023-05-08T17:42:50.361Z,52.19
2023-05-08T17:45:53.026Z,52.06
2023-05-08T17:48:55.959Z,53.71
2023-05-08T17:51:58.552Z,53.89
2023-05-08T17:55:01.422Z,53.44
2023-05-08T17:58:04.190Z,53.24
2023-05-08T18:01:07.712Z,54.12
2023-05-08T18:04:11.003Z,54.71
2023-05-08T18:07:13.619Z,55.34
2023-05-08T18:10:16.745Z,55.58
2023-05-08T18:13:19.571Z,56.07
2023-05-08T18:16:23.034Z,56.50
2023-05-08T18:19:25.836Z,57.21
2023-05-08T18:22:28.918Z,57.22
2023-05-08T18:25:31.531Z,58.42
2023-05-08T18:28:36.233Z,58.47
2023-05-08T18:31:39.061Z,59.16
2023-05-08T18:34:42.217Z,59.89
2023-05-08T18:37:44.913Z,60.55
2023-05-08T18:40:48.006Z,59.78
2023-05-08T18:43:51.644Z,61.60
2023-05-08T18:46:54.534Z,59.64
2023-05-08T18:49:57.772Z,59.37
2023-05-08T18:53:00.832Z,59.92
2023-05-08T18:56:04.122Z,59.52
2023-05-08T18:59:07.314Z,60.20
2023-05-08T19:02:10.676Z,60.23
2023-05-08T19:05:13.717Z,60.34
2023-05-08T19:08:19.180Z,60.33
2023-05-08T19:11:22.100Z,60.29
2023-05-08T19:14:25.701Z,60.71
2023-05-08T19:17:28.732Z,58.92
2023-05-08T19:20:32.051Z,58.87
2023-05-08T19:23:36.613Z,58.83
2023-05-08T19:26:39.674Z,59.77
2023-05-08T19:29:42.707Z,59.66
2023-05-08T19:32:46.756Z,60.04
2023-05-08T19:35:49.897Z,59.97
2023-05-08T19:38:52.663Z,59.86
2023-05-08T19:41:56.390Z,59.72
2023-05-08T19:44:59.046Z,60.05
2023-05-08T19:48:03.267Z,60.38
2023-05-08T19:51:09.482Z,60.55
2023-05-08T19:54:12.402Z,60.96
2023-05-08T19:57:15.111Z,61.10
2023-05-08T20:00:18.382Z,61.81
2023-05-08T20:03:21.477Z,62.19
2023-05-08T20:06:24.246Z,63.00
2023-05-08T20:09:27.234Z,63.80
2023-05-08T20:12:29.839Z,64.25
2023-05-08T20:15:32.824Z,64.51
2023-05-08T20:18:35.732Z,64.99
2023-05-08T20:21:39.377Z,65.71
2023-05-08T20:24:41.997Z,65.92
2023-05-08T20:27:45.023Z,66.39
2023-05-08T20:30:48.760Z,67.95
2023-05-08T20:33:52.014Z,67.87
2023-05-08T20:36:56.320Z,68.67
2023-05-08T20:39:59.737Z,69.07
2023-05-08T20:43:02.695Z,68.51
2023-05-08T20:46:05.910Z,69.45
2023-05-08T20:49:08.579Z,69.82
2023-05-08T20:52:11.542Z,70.00
2023-05-08T20:55:14.745Z,70.60
2023-05-08T20:58:18.076Z,70.76
2023-05-08T21:01:21.299Z,71.39
2023-05-08T21:04:24.484Z,71.74
2023-05-08T21:07:27.260Z,71.97
2023-05-08T21:10:31.477Z,71.88
2023-05-08T21:13:34.197Z,71.89
2023-05-08T21:16:37.545Z,71.76
2023-05-08T21:19:40.203Z,71.79
2023-05-08T21:22:43.462Z,71.48
2023-05-08T21:25:50.089Z,70.67
2023-05-08T21:28:53.825Z,71.69
2023-05-08T21:31:56.510Z,71.28
2023-05-08T21:34:59.548Z,71.19
2023-05-08T21:38:02.248Z,71.68
2023-05-08T21:41:07.769Z,71.52
2023-05-08T21:44:15.447Z,72.07
2023-05-08T21:47:19.460Z,71.16
2023-05-08T21:50:22.347Z,71.31
2023-05-08T21:53:25.611Z,70.36
2023-05-08T21:56:28.204Z,70.70
2023-05-08T21:59:31.191Z,71.39
2023-05-08T22:02:33.954Z,71.94
2023-05-08T22:05:37.486Z,72.50
2023-05-08T22:08:40.107Z,72.70
2023-05-08T22:11:43.039Z,71.53
2023-05-08T22:14:45.681Z,71.33
2023-05-08T22:17:49.673Z,70.66
2023-05-08T22:20:52.647Z,70.63
2023-05-08T22:23:56.664Z,70.81
2023-05-08T22:26:59.181Z,71.04
2023-05-08T22:30:02.243Z,72.40
2023-05-08T22:33:04.961Z,72.29
2023-05-08T22:36:08.469Z,72.91
2023-05-08T22:39:11.691Z,72.87
2023-05-08T22:42:15.122Z,73.41
2023-05-08T22:45:18.077Z,73.35
2023-05-08T22:48:21.559Z,72.71
2023-05-08T22:51:24.343Z,72.49
2023-05-08T22:54:27.377Z,73.66
2023-05-08T22:57:30.524Z,74.06
2023-05-08T23:00:33.605Z,74.13
2023-05-08T23:03:36.249Z,74.28
2023-05-08T23:06:39.086Z,75.72
2023-05-08T23:09:41.752Z,76.47
2023-05-08T23:12:44.770Z,76.58
2023-05-08T23:15:47.390Z,76.59
2023-05-08T23:18:50.282Z,77.10
2023-05-08T23:21:52.985Z,76.59
2023-05-08T23:24:56.219Z,76.46
2023-05-08T23:27:58.840Z,76.51
2023-05-08T23:31:02.127Z,76.57
2023-05-08T23:34:04.883Z,77.09
2023-05-08T23:37:07.927Z,77.28
2023-05-08T23:40:11.032Z,77.27
2023-05-08T23:43:13.936Z,76.99
2023-05-08T23:46:16.489Z,77.02
2023-05-08T23:49:19.367Z,77.65
2023-05-08T23:52:22.000Z,78.00
2023-05-08T23:55:25.622Z,78.04
2023-05-08T23:58:28.199Z,78.45
